createdAt,value
2023-03-03T00:03:48.590Z,78.70
2023-03-03T00:08:10.861Z,89.10
2023-03-03T00:12:41.274Z,65.30
2023-03-03T00:33:19.061Z,58.90
2023-03-03T00:37:48.554Z,70.40
2023-03-03T00:42:08.165Z,45.30
2023-03-03T01:04:26.242Z,56.70
2023-03-03T01:08:54.463Z,48.10
2023-03-03T01:13:24.185Z,44.80
2023-03-03T01:17:51.592Z,48.50
2023-03-03T01:34:55.114Z,49.20
2023-03-03T01:39:24.461Z,34.80
2023-03-03T01:43:54.811Z,32.20
2023-03-03T02:10:09.061Z,28.70
2023-03-03T02:14:31.253Z,34.30
2023-03-03T02:35:11.068Z,40.00
2023-03-03T02:39:48.413Z,34.40
2023-03-03T02:44:16.464Z,41.40
2023-03-03T02:48:31.737Z,35.60
2023-03-03T02:53:00.623Z,31.60
2023-03-03T03:22:34.754Z,27.00
2023-03-03T03:26:37.429Z,30.50
2023-03-03T03:30:49.827Z,30.80
2023-03-03T03:35:19.723Z,31.10
2023-03-03T03:56:56.839Z,33.30
2023-03-03T04:01:26.097Z,32.10
2023-03-03T04:05:47.088Z,25.30
2023-03-03T04:10:16.390Z,31.40
2023-03-03T04:31:52.478Z,33.50
2023-03-03T04:36:21.334Z,29.00
2023-03-03T04:40:49.248Z,31.20
2023-03-03T04:45:04.879Z,32.60
2023-03-03T04:49:34.014Z,32.00
2023-03-03T04:53:54.733Z,35.70
2023-03-03T04:58:25.968Z,38.60
2023-03-03T05:20:09.234Z,37.40
2023-03-03T05:24:37.502Z,34.80
2023-03-03T05:29:08.043Z,36.60
2023-03-03T05:37:23.761Z,36.20
2023-03-03T05:41:53.003Z,34.30
2023-03-03T05:46:14.886Z,41.70
2023-03-03T05:50:24.257Z,37.10
2023-03-03T05:54:32.476Z,33.00
2023-03-03T05:58:54.935Z,38.00
2023-03-03T06:23:57.613Z,38.10
2023-03-03T06:28:15.023Z,31.80
2023-03-03T06:32:37.088Z,31.50
2023-03-03T07:06:23.427Z,44.30
2023-03-03T07:10:26.285Z,49.40
2023-03-03T07:14:39.181Z,51.30
2023-03-03T07:19:14.558Z,54.70
2023-03-03T07:23:43.805Z,52.80
2023-03-03T07:28:04.247Z,57.20
2023-03-03T07:32:36.595Z,60.50
2023-03-03T07:37:05.122Z,52.60
2023-03-03T07:45:29.138Z,47.20
2023-03-03T07:49:40.241Z,46.00
2023-03-03T07:54:12.534Z,46.00
2023-03-03T07:58:26.156Z,49.90
2023-03-03T08:02:22.585Z,50.90
2023-03-03T08:06:50.748Z,40.70
2023-03-03T08:28:22.839Z,44.30
2023-03-03T08:32:42.553Z,45.60
2023-03-03T08:36:47.482Z,45.20
2023-03-03T08:44:03.058Z,31.70
2023-03-03T08:48:12.136Z,27.60
2023-03-03T08:52:05.428Z,29.70
2023-03-03T08:56:25.916Z,32.70
2023-03-03T09:00:29.809Z,25.50
2023-03-03T09:04:47.834Z,29.30
2023-03-03T09:09:15.947Z,30.00
2023-03-03T09:13:34.792Z,25.30
2023-03-03T09:17:56.087Z,25.50
2023-03-03T09:22:08.702Z,23.70
2023-03-03T09:26:27.071Z,15.70
2023-03-03T09:30:48.054Z,18.20
2023-03-03T09:39:32.520Z,24.90
2023-03-03T10:05:59.865Z,21.80
2023-03-03T10:10:33.955Z,15.80
2023-03-03T10:15:12.130Z,18.50
2023-03-03T10:36:40.532Z,22.00
2023-03-03T10:41:07.348Z,20.90
2023-03-03T10:45:51.831Z,19.00
2023-03-03T10:50:23.799Z,18.50
2023-03-03T10:54:40.877Z,15.90
2023-03-03T10:59:13.036Z,14.00
2023-03-03T11:57:15.934Z,21.90
2023-03-03T12:01:25.645Z,18.90
2023-03-03T12:05:56.533Z,16.40
2023-03-03T12:10:44.296Z,15.80
2023-03-03T12:15:12.017Z,17.50
2023-03-03T12:19:43.289Z,14.30
2023-03-03T12:24:03.692Z,12.60
2023-03-03T12:51:11.160Z,15.40
2023-03-03T12:55:52.632Z,14.80
2023-03-03T13:00:17.209Z,12.90
2023-03-03T13:04:56.663Z,15.00
2023-03-03T13:09:43.167Z,14.00
2023-03-03T13:14:22.234Z,14.90
2023-03-03T13:22:39.603Z,12.70
2023-03-03T13:27:07.035Z,13.20
2023-03-03T13:35:20.109Z,12.40
2023-03-03T13:39:12.711Z,14.30
2023-03-03T13:43:10.248Z,13.90
2023-03-03T13:47:40.902Z,13.90
2023-03-03T13:52:12.933Z,17.70
2023-03-03T13:56:29.512Z,12.10
2023-03-03T14:01:00.311Z,19.20
2023-03-03T14:05:28.093Z,16.10
2023-03-03T14:18:09.003Z,14.90
2023-03-03T14:53:06.934Z,13.90
2023-03-03T14:57:35.815Z,12.60
2023-03-03T15:02:10.654Z,12.10
2023-03-03T15:06:40.401Z,13.00
2023-03-03T15:11:12.385Z,13.50
2023-03-03T15:15:31.636Z,11.90
2023-03-03T15:37:14.677Z,17.00
2023-03-03T15:41:46.831Z,13.40
2023-03-03T15:46:19.166Z,13.70
2023-03-03T15:50:36.074Z,11.90
2023-03-03T15:55:11.994Z,15.10
2023-03-03T15:59:37.539Z,17.40
2023-03-03T16:07:59.708Z,14.00
2023-03-03T16:12:31.002Z,15.90
2023-03-03T16:17:06.248Z,20.80
2023-03-03T16:21:43.825Z,12.90
2023-03-03T16:26:30.897Z,14.30
2023-03-03T16:30:58.774Z,14.80
2023-03-03T16:56:49.000Z,19.40
2023-03-03T17:01:08.698Z,17.00
2023-03-03T17:05:51.242Z,13.80
2023-03-03T17:10:24.672Z,14.10
2023-03-03T17:18:48.384Z,11.90
2023-03-03T17:23:20.479Z,12.30
2023-03-03T17:27:46.174Z,13.50
2023-03-03T17:58:34.375Z,21.70
2023-03-03T18:03:07.412Z,23.80
2023-03-03T18:07:44.350Z,22.20
2023-03-03T18:12:28.765Z,16.50
2023-03-03T18:17:00.451Z,16.60
2023-03-03T18:21:48.397Z,17.20
2023-03-03T18:53:06.067Z,18.50
2023-03-03T18:57:43.854Z,35.00
2023-03-03T19:02:13.290Z,19.80
2023-03-03T19:06:53.910Z,15.90
2023-03-03T19:11:35.349Z,17.30
2023-03-03T19:20:06.508Z,20.60
2023-03-03T19:24:30.562Z,15.90
2023-03-03T19:29:03.579Z,19.20
2023-03-03T19:57:34.769Z,26.10
2023-03-03T20:01:50.702Z,21.30
2023-03-03T20:06:19.376Z,23.60
2023-03-03T20:10:52.481Z,22.80
2023-03-03T20:33:15.305Z,25.40
2023-03-03T20:37:48.532Z,23.00
2023-03-03T20:59:59.133Z,26.20
2023-03-03T21:04:37.890Z,25.00
2023-03-03T21:09:18.732Z,23.90
2023-03-03T21:17:15.356Z,22.10
2023-03-03T21:21:33.121Z,21.70
2023-03-03T21:31:07.453Z,21.60
2023-03-03T21:52:47.114Z,20.80
2023-03-03T21:57:09.052Z,21.80
2023-03-03T22:01:40.306Z,20.70
2023-03-03T22:22:46.798Z,16.80
2023-03-03T22:27:16.070Z,20.80
2023-03-03T22:31:38.352Z,20.20
2023-03-03T22:48:45.471Z,20.90
2023-03-03T22:53:14.751Z,19.00
2023-03-03T22:57:44.174Z,18.80
2023-03-03T23:02:14.285Z,18.00
2023-03-03T23:23:50.512Z,18.00
2023-03-03T23:28:07.769Z,23.00
2023-03-03T23:32:37.151Z,16.60
2023-03-03T23:36:57.642Z,18.00
